Share

Artesia, MS

9:57 PM CDT on April 23, 2014 (GMT -0500)
Golden Triangle Regional (KGTR) Elev 262 ft | 33.45 °N, 88.59 °W | Change Station

Current weather conditions updated 22 minutes ago

Clear
Clear
61 °F
Feels Like 61 °F
N
0
Wind Variable Wind from North
Sunrise 6:14 AM
Sunset 7:31 PM
Moon Waning Crescent

Tomorrow is forecast to be Warmer than today. Thunderstorms tomorrow night.

Pressure 29.97 in
Visibility 10.0 miles
Clouds Clear
Dew Point 46 °F
Humidity 59%
Rainfall 0.00 in
Snow Depth Not available.
UV 0 out of 16
Pollen 8.00 out of 12
Air Quality Not available.
Flu Activity No Activity
METAR KGTR 240235Z AUTO 00000KT 10SM CLR 16/08 A2997 RMK AO1

More Conditions Fewer Conditions

Pressure 29.97 in
Visibility 10.0 miles
Clouds Clear
Dew Point 46 °F
Humidity 59%
Rainfall 0.00 in
Snow Depth Not available.
UV 0 out of 16
Pollen 8.00 out of 12
Air Quality Not available.
Flu Activity No Activity
METAR KGTR 240235Z AUTO 00000KT 10SM CLR 16/08 A2997 RMK AO1

More Conditions Fewer Conditions

10-Day Weather Forecast

Almanac

Astronomy

Apr. 23, 2014 Rise Set
Actual Time 6:14 AM CDT 7:31 PM CDT
Civil Twilight 5:48 AM CDT 7:57 PM CDT
Nautical Twilight 5:18 AM CDT 8:28 PM CDT
Astronomical Twilight 4:45 AM CDT 9:00 PM CDT
Moon 2:28 AM CDT (4/23) 1:56 PM CDT (4/23)
Length of Visible Light 14h 08m
Length of Day
13h 16m
Tomorrow will be 1m 52s longer.
Waning Crescent, 30% of the Moon is Illuminated
Today
Waning Crescent
Apr 29
New
May 6
First Quarter
May 14
Full
May 21
Last Quarter

Today's Extremes

State Highs State Lows

Community

  • Nestled In
    Nestled In
  • Stunning Sunrise
    Stunning Sunrise
  • spring flowers
    spring flowers
  • Earth Day Spectrum Ove' Blue
    Earth Day Spectrum Ove' Blue
  • BARN B&W
    BARN B&W

WunderPhotos

Upload Photos

1,704,525 photos uploaded!

WunderBlogs® & News

Nearby

Snow Depth

Station Depth Elevation
No new snow has been reported.

Coastal Water Temperatures

Place Temperature
No Stations Reporting

Earthquake Activity

City Distance Mag. Time & Date
No recent earthquake activity has been reported nearby.
Minimum magnitude displayed is 2.5.

Nearby Weather Stations

Station Location Temp. Dew Point Humidity Wind Precip. Elev Updated Type
Tibbee Bluff, Columbus, MS 63.1 °F 45 °F 52% North  at  0.0 mph 0.00 in / hr 197 ft 9:30 PM CDT Normal
RAWS NOXUBEE - FTS MS, Starkville, MS 61 °F 50 °F 66% North  at  0 mph 0.00 in / hr 350 ft 8:24 PM CDT MADIS
Near Intersection of Hwys 82, Columbus, MS 59.1 °F 52 °F 78% WNW  at  0.0 mph 0.00 in / hr 154 ft 9:56 PM CDT Rapid Fire
Shiloh, Steens, MS 54.9 °F 50 °F 82% East  at  1.7 mph - / hr 276 ft 9:43 PM CDT Normal

Show More Stations Show Fewer Stations

What do you think?

We're not finished. Please let us know what you like, what you don't like, and what you are still missing.